Time;durP1;ratioP1;P1;durP2;ratioP2;P2;SDS_P1;SDS_P2;PMS_P1;PMS_P2;Temp;Humidity;BMP_temperature;BMP_pressure;BME280_temperature;BME280_humidity;BME280_pressure;Samples;Min_cycle;Max_cycle;Signal;HPM_P1;HPM_P2
2021/01/04 12:22:00;;;;;;;13.90;8.60;;;4.80;79.00;;;;;;5073242;27;20602;-92
2021/01/04 12:24:25;;;;;;;13.75;8.35;;;5.00;79.10;;;;;;5039014;28;20219;-92
2021/01/04 12:26:51;;;;;;;12.97;7.67;;;5.00;78.70;;;;;;5013370;28;20249;-92
2021/01/04 12:29:18;;;;;;;14.63;8.97;;;5.00;78.90;;;;;;5016642;28;20214;-93
2021/01/04 12:31:45;;;;;;;13.05;8.55;;;5.10;79.00;;;;;;5019608;28;20438;-94
2021/01/04 12:34:11;;;;;;;13.85;7.68;;;5.20;78.20;;;;;;5021744;28;20194;-94
2021/01/04 12:36:37;;;;;;;13.53;9.23;;;5.20;77.80;;;;;;5057297;28;20182;-94
2021/01/04 12:39:03;;;;;;;12.77;8.97;;;5.30;77.80;;;;;;5056981;28;20288;-93
2021/01/04 12:41:35;;;;;;;14.50;8.45;;;5.10;78.10;;;;;;5057749;28;20480;-93
2021/01/04 12:44:00;;;;;;;9.02;6.95;;;5.30;77.60;;;;;;5050784;28;20181;-94
2021/01/04 12:46:26;;;;;;;13.43;8.07;;;5.50;77.00;;;;;;5051987;28;20178;-93
2021/01/04 12:48:51;;;;;;;12.27;7.93;;;5.50;76.60;;;;;;5049641;28;20197;-93
2021/01/04 12:51:17;;;;;;;11.93;7.43;;;5.40;76.40;;;;;;5051429;28;20189;-94
2021/01/04 12:53:43;;;;;;;10.10;7.17;;;5.50;76.50;;;;;;5057346;28;20181;-94
2021/01/04 12:56:10;;;;;;;11.67;7.00;;;5.40;76.40;;;;;;5061091;28;20269;-93
2021/01/04 12:58:39;;;;;;;12.27;8.23;;;5.40;76.40;;;;;;5055056;28;20186;-94
2021/01/04 13:01:05;;;;;;;12.95;7.78;;;5.40;76.30;;;;;;5050296;28;20216;-93
2021/01/04 13:03:31;;;;;;;14.80;8.95;;;5.20;76.10;;;;;;5050733;28;20661;-93
2021/01/04 13:05:56;;;;;;;9.80;7.07;;;5.20;76.50;;;;;;5049637;28;20185;-91
2021/01/04 13:08:22;;;;;;;11.23;7.80;;;5.30;76.30;;;;;;5048146;28;20175;-92
2021/01/04 13:10:48;;;;;;;10.97;6.80;;;5.20;76.00;;;;;;5047913;28;20198;-92
2021/01/04 13:13:14;;;;;;;12.07;7.53;;;5.10;76.50;;;;;;5049952;28;20416;-93
2021/01/04 13:15:43;;;;;;;8.95;6.53;;;5.30;76.60;;;;;;5049083;28;20574;-92
2021/01/04 13:18:09;;;;;;;12.52;8.40;;;5.50;76.30;;;;;;5049165;28;20186;-92
2021/01/04 13:20:35;;;;;;;9.52;6.68;;;5.30;76.50;;;;;;5050349;28;20732;-92
2021/01/04 13:23:16;;;;;;;9.90;6.33;;;5.10;76.90;;;;;;5047677;28;20178;-92
2021/01/04 13:25:42;;;;;;;9.82;7.00;;;5.20;77.20;;;;;;5046881;28;20431;-93
2021/01/04 13:28:08;;;;;;;7.20;5.37;;;5.20;76.90;;;;;;5049438;28;20178;-92
2021/01/04 13:30:33;;;;;;;8.82;6.03;;;5.20;77.10;;;;;;5048283;28;20210;-92
2021/01/04 13:32:59;;;;;;;9.90;6.63;;;5.30;77.00;;;;;;5038904;28;20186;-92
2021/01/04 13:35:25;;;;;;;11.17;6.90;;;5.40;76.80;;;;;;5034788;28;20183;-92
2021/01/04 13:37:51;;;;;;;9.10;5.40;;;5.50;76.50;;;;;;5018286;28;20452;-92
2021/01/04 13:40:17;;;;;;;6.40;4.67;;;5.40;76.50;;;;;;5018352;28;20453;-92
2021/01/04 13:42:43;;;;;;;6.80;4.50;;;5.50;76.90;;;;;;5018677;28;20175;-92
2021/01/04 13:45:09;;;;;;;7.10;5.00;;;5.40;76.70;;;;;;5016118;28;20186;-91
2021/01/04 13:47:35;;;;;;;5.53;4.93;;;5.30;76.80;;;;;;5016679;28;20432;-91
2021/01/04 13:50:01;;;;;;;7.67;4.60;;;5.40;77.10;;;;;;5025416;28;20203;-91
2021/01/04 13:52:27;;;;;;;5.10;4.10;;;5.50;76.60;;;;;;5035200;28;20425;-91
2021/01/04 13:54:52;;;;;;;5.60;4.50;;;5.40;76.00;;;;;;5016179;28;20276;-92
2021/01/04 13:57:18;;;;;;;4.93;4.33;;;5.50;76.40;;;;;;5015706;28;20205;-91
2021/01/04 13:59:46;;;;;;;4.93;4.53;;;5.50;76.50;;;;;;5014463;28;20271;-90
2021/01/04 14:02:15;;;;;;;6.28;4.32;;;5.50;76.50;;;;;;5014649;28;20650;-90
2021/01/04 14:04:41;;;;;;;4.95;3.92;;;5.30;77.00;;;;;;5015873;28;20634;-92
2021/01/04 14:07:07;;;;;;;4.93;4.33;;;5.30;76.70;;;;;;5016263;28;20185;-91
2021/01/04 14:09:33;;;;;;;8.73;3.85;;;5.40;76.90;;;;;;5015878;28;20452;-90
2021/01/04 14:11:58;;;;;;;5.68;3.40;;;5.60;76.70;;;;;;5015774;28;20179;-92
2021/01/04 14:14:25;;;;;;;7.73;4.00;;;5.60;76.40;;;;;;5016189;28;20210;-91
2021/01/04 14:16:51;;;;;;;4.30;3.42;;;5.60;76.20;;;;;;5015902;28;20947;-91
2021/01/04 14:19:17;;;;;;;3.13;2.83;;;5.60;75.70;;;;;;5019176;28;20202;-92
2021/01/04 14:21:48;;;;;;;4.43;3.42;;;5.30;76.10;;;;;;5015374;28;20261;-92
2021/01/04 14:24:13;;;;;;;6.80;3.05;;;5.40;76.40;;;;;;5010705;28;20179;-91
2021/01/04 14:26:39;;;;;;;6.00;3.65;;;5.30;76.90;;;;;;5011263;28;20182;-90
2021/01/04 14:29:06;;;;;;;4.83;3.90;;;5.40;77.00;;;;;;5012792;28;20241;-90
2021/01/04 14:31:41;;;;;;;3.70;3.40;;;5.30;77.20;;;;;;5003651;28;20175;-90
2021/01/04 14:34:08;;;;;;;5.75;4.28;;;5.10;77.50;;;;;;5013833;28;20209;-89
2021/01/04 14:36:35;;;;;;;7.28;4.00;;;5.10;78.00;;;;;;5007904;28;20179;-90
2021/01/04 14:39:00;;;;;;;6.38;4.47;;;5.20;78.10;;;;;;5014169;28;20613;-91
2021/01/04 14:41:27;;;;;;;5.63;3.60;;;5.30;78.30;;;;;;5004457;28;20194;-89
2021/01/04 14:43:54;;;;;;;3.92;3.05;;;5.40;78.20;;;;;;5014418;28;20782;-90
2021/01/04 14:46:23;;;;;;;5.55;3.50;;;5.40;77.90;;;;;;5013626;28;20270;-88
2021/01/04 14:48:51;;;;;;;5.90;3.58;;;5.40;78.00;;;;;;5012755;28;20179;-90
2021/01/04 14:51:17;;;;;;;8.68;5.20;;;5.60;78.30;;;;;;5014987;28;20261;-89
2021/01/04 14:53:47;;;;;;;6.93;4.85;;;5.60;78.00;;;;;;5021089;28;20186;-90
2021/01/04 14:56:14;;;;;;;7.00;5.00;;;5.30;78.80;;;;;;5016406;28;20516;-89
2021/01/04 14:58:40;;;;;;;9.48;5.20;;;5.50;79.00;;;;;;5014913;28;20536;-90
2021/01/04 15:01:08;;;;;;;6.87;5.77;;;5.30;79.60;;;;;;5011605;28;20203;-90
2021/01/04 15:03:34;;;;;;;11.38;6.05;;;5.40;79.20;;;;;;5000877;28;20411;-90
2021/01/04 15:06:02;;;;;;;9.60;6.40;;;5.40;79.90;;;;;;5012169;28;20179;-89
2021/01/04 15:08:27;;;;;;;10.18;6.30;;;5.40;79.10;;;;;;5004371;28;20183;-90
2021/01/04 15:10:53;;;;;;;14.50;8.20;;;5.50;79.20;;;;;;5013833;28;20312;-90
2021/01/04 15:13:19;;;;;;;8.63;5.87;;;5.60;79.10;;;;;;4998631;28;20175;-91
2021/01/04 15:15:45;;;;;;;10.70;6.50;;;5.50;79.20;;;;;;5014302;28;20186;-91
2021/01/04 15:18:11;;;;;;;12.95;7.10;;;5.50;79.40;;;;;;5013552;28;20590;-90
2021/01/04 15:20:37;;;;;;;11.03;7.10;;;5.30;80.50;;;;;;5011898;28;20241;-91
2021/01/04 15:23:03;;;;;;;8.67;5.53;;;4.90;81.00;;;;;;5008393;28;20174;-91
2021/01/04 15:25:28;;;;;;;8.60;5.50;;;5.00;81.20;;;;;;5004423;28;20410;-91
2021/01/04 15:27:54;;;;;;;10.17;6.33;;;5.20;81.20;;;;;;5014026;28;20406;-91
2021/01/04 15:30:20;;;;;;;11.23;7.20;;;5.10;81.60;;;;;;5014367;28;20199;-89
2021/01/04 15:32:46;;;;;;;11.88;6.32;;;5.20;81.80;;;;;;5031604;28;20451;-89
2021/01/04 15:35:13;;;;;;;10.10;7.20;;;5.20;82.10;;;;;;5018760;28;20172;-90
2021/01/04 15:37:38;;;;;;;12.00;7.10;;;5.30;82.90;;;;;;5021820;28;20194;-91
2021/01/04 15:40:05;;;;;;;14.00;7.70;;;5.30;82.80;;;;;;5014211;28;20682;-89
2021/01/04 15:42:31;;;;;;;14.75;6.45;;;5.20;82.70;;;;;;5030666;28;20178;-88
2021/01/04 15:44:57;;;;;;;13.50;7.60;;;5.30;83.60;;;;;;5013542;28;20585;-90
2021/01/04 15:47:23;;;;;;;11.20;6.63;;;5.10;83.40;;;;;;5013720;28;20421;-89
2021/01/04 15:49:48;;;;;;;13.20;8.00;;;5.20;83.70;;;;;;5013218;28;20449;-89
2021/01/04 15:52:14;;;;;;;14.27;7.70;;;5.20;83.80;;;;;;5014003;28;20493;-90
2021/01/04 15:54:43;;;;;;;15.30;8.30;;;5.30;83.70;;;;;;5009193;28;20181;-88
2021/01/04 15:57:10;;;;;;;15.23;8.88;;;5.30;83.60;;;;;;4994115;28;20407;-88
2021/01/04 15:59:36;;;;;;;13.70;8.93;;;5.40;83.40;;;;;;4993243;28;20777;-89
2021/01/04 16:02:06;;;;;;;13.83;8.03;;;5.30;83.70;;;;;;5010630;28;20261;-91
2021/01/04 16:04:33;;;;;;;19.92;9.82;;;5.10;83.50;;;;;;5013786;28;20203;-90
2021/01/04 16:06:58;;;;;;;19.17;9.40;;;5.10;84.30;;;;;;5015223;28;20217;-89
2021/01/04 16:09:27;;;;;;;21.00;10.17;;;5.20;84.40;;;;;;5019797;28;20195;-88
2021/01/04 16:12:01;;;;;;;19.52;10.25;;;5.20;84.40;;;;;;5036497;28;20214;-89
2021/01/04 16:14:28;;;;;;;16.63;9.05;;;5.00;84.20;;;;;;5019514;28;20272;-90
2021/01/04 16:16:59;;;;;;;16.88;9.68;;;4.80;84.50;;;;;;5038125;28;20187;-89
2021/01/04 16:19:27;;;;;;;16.15;8.60;;;4.80;84.90;;;;;;5036969;28;20233;-90
2021/01/04 16:21:53;;;;;;;19.60;9.75;;;5.00;84.80;;;;;;5036010;28;20198;-90
2021/01/04 16:24:19;;;;;;;17.65;8.70;;;5.00;84.70;;;;;;5036385;28;20316;-90
2021/01/04 16:26:45;;;;;;;18.65;8.90;;;5.10;84.20;;;;;;5033694;28;20189;-88
2021/01/04 16:29:11;;;;;;;22.33;10.68;;;5.00;83.90;;;;;;5017225;28;20225;-88
2021/01/04 16:32:08;;;;;;;16.03;9.03;;;5.10;83.70;;;;;;5029942;28;20187;-87
2021/01/04 16:34:34;;;;;;;19.00;10.55;;;5.00;83.50;;;;;;5017416;28;20417;-89
2021/01/04 16:37:10;;;;;;;21.27;10.93;;;4.70;84.20;;;;;;5028515;28;20202;-89
2021/01/04 16:39:40;;;;;;;16.92;10.13;;;4.70;84.50;;;;;;5024273;28;20429;-90
2021/01/04 16:42:10;;;;;;;15.15;8.15;;;4.90;84.40;;;;;;5014279;28;20266;-89
2021/01/04 16:44:36;;;;;;;17.38;10.07;;;4.80;84.20;;;;;;5033819;28;20275;-90
2021/01/04 16:47:03;;;;;;;18.10;8.95;;;4.90;83.70;;;;;;5035997;28;20174;-89
2021/01/04 16:49:28;;;;;;;17.38;9.40;;;4.90;83.10;;;;;;5035755;28;20189;-89
2021/01/04 16:52:02;;;;;;;15.77;9.40;;;4.70;83.00;;;;;;5024085;28;20281;-89
2021/01/04 16:54:28;;;;;;;15.27;9.00;;;4.70;83.50;;;;;;5014495;28;20472;-91
2021/01/04 16:56:54;;;;;;;19.25;9.88;;;4.70;83.50;;;;;;5015252;28;20190;-91
2021/01/04 16:59:21;;;;;;;14.80;8.83;;;4.70;83.50;;;;;;5016647;28;20567;-90
2021/01/04 17:01:47;;;;;;;19.70;10.88;;;4.60;83.20;;;;;;5017063;28;20288;-91
2021/01/04 17:04:13;;;;;;;14.63;8.77;;;4.50;83.30;;;;;;5016127;28;20182;-90
2021/01/04 17:06:39;;;;;;;12.83;8.47;;;4.60;83.30;;;;;;5016265;28;20175;-91
2021/01/04 17:09:08;;;;;;;12.40;8.33;;;4.60;83.40;;;;;;5016712;28;20205;-91
2021/01/04 17:11:41;;;;;;;20.23;9.77;;;4.60;83.10;;;;;;5017402;28;20425;-90
2021/01/04 17:14:10;;;;;;;13.00;8.32;;;4.60;83.30;;;;;;5017154;28;20649;-91
2021/01/04 17:16:35;;;;;;;16.30;8.95;;;4.70;82.70;;;;;;5006934;28;20555;-90
2021/01/04 17:19:01;;;;;;;14.30;8.50;;;4.60;82.10;;;;;;4997687;28;20238;-89
2021/01/04 17:21:30;;;;;;;11.67;8.30;;;4.50;82.10;;;;;;5016998;28;20457;-91
2021/01/04 17:23:58;;;;;;;20.15;10.02;;;4.60;82.10;;;;;;5018589;28;20486;-90
2021/01/04 17:26:25;;;;;;;14.45;8.65;;;4.60;81.40;;;;;;5007673;28;20183;-90
2021/01/04 17:28:53;;;;;;;15.45;7.57;;;4.70;81.80;;;;;;5001019;28;20183;-90
2021/01/04 17:31:22;;;;;;;10.80;6.90;;;4.70;81.20;;;;;;5039077;28;20179;-90
2021/01/04 17:33:49;;;;;;;19.50;8.38;;;4.40;81.00;;;;;;5035397;28;20653;-90
2021/01/04 17:36:16;;;;;;;12.10;7.68;;;4.80;81.00;;;;;;5034272;28;20190;-90
2021/01/04 17:38:42;;;;;;;10.73;7.38;;;4.80;80.40;;;;;;5016651;28;20661;-90
2021/01/04 17:41:10;;;;;;;11.35;7.22;;;4.90;80.40;;;;;;5016313;28;20245;-90
2021/01/04 17:43:36;;;;;;;12.52;7.95;;;4.90;80.30;;;;;;5015794;28;20183;-90
2021/01/04 17:46:03;;;;;;;8.27;6.50;;;5.00;79.80;;;;;;5016251;28;20642;-90
2021/01/04 17:48:29;;;;;;;12.63;7.40;;;4.90;79.50;;;;;;5016055;28;20175;-88
2021/01/04 17:50:55;;;;;;;10.27;7.30;;;4.70;79.40;;;;;;5015891;28;20276;-90
2021/01/04 17:53:20;;;;;;;14.03;6.83;;;4.70;79.60;;;;;;5015432;28;20182;-90
2021/01/04 17:55:46;;;;;;;10.50;6.73;;;4.50;80.10;;;;;;5015304;28;20786;-90
2021/01/04 17:58:12;;;;;;;12.60;6.70;;;4.70;80.40;;;;;;5015449;28;20194;-90
2021/01/04 18:00:38;;;;;;;9.03;6.10;;;4.60;80.00;;;;;;5015258;28;20217;-90
2021/01/04 18:03:05;;;;;;;14.47;7.40;;;4.80;79.90;;;;;;5016592;28;20202;-89
2021/01/04 18:05:31;;;;;;;11.70;7.53;;;4.80;79.70;;;;;;5017315;28;20414;-90
2021/01/04 18:07:57;;;;;;;13.63;7.40;;;4.60;79.80;;;;;;5018193;28;20189;-90
2021/01/04 18:10:22;;;;;;;9.85;7.38;;;4.50;79.60;;;;;;5015774;28;20963;-91
2021/01/04 18:12:49;;;;;;;13.67;8.00;;;4.60;79.30;;;;;;5031519;28;20191;-90
2021/01/04 18:15:16;;;;;;;10.73;8.05;;;4.70;79.10;;;;;;5043090;28;20516;-90
2021/01/04 18:17:42;;;;;;;14.90;7.70;;;4.80;79.30;;;;;;5010927;28;20625;-88
2021/01/04 18:20:11;;;;;;;10.45;6.55;;;4.50;79.40;;;;;;5004965;28;20301;-89
2021/01/04 18:22:36;;;;;;;9.10;6.05;;;4.60;79.50;;;;;;5032138;28;20175;-90
2021/01/04 18:25:08;;;;;;;12.30;6.90;;;4.40;79.40;;;;;;5015445;28;20185;-91
2021/01/04 18:27:33;;;;;;;10.88;7.22;;;4.40;79.70;;;;;;5027394;28;20424;-90
2021/01/04 18:29:59;;;;;;;10.98;6.00;;;4.40;79.60;;;;;;5016704;28;20293;-93
2021/01/04 18:32:25;;;;;;;8.97;6.00;;;4.50;79.60;;;;;;5017267;28;20182;-93
2021/01/04 18:34:52;;;;;;;12.20;6.40;;;4.70;78.90;;;;;;5015677;28;20418;-92
2021/01/04 18:37:19;;;;;;;7.68;5.63;;;4.50;79.10;;;;;;5016058;28;20189;-92
2021/01/04 18:39:45;;;;;;;12.40;6.68;;;4.60;79.00;;;;;;5015780;28;20289;-93
2021/01/04 18:42:11;;;;;;;10.50;7.55;;;4.70;78.90;;;;;;5016309;28;20274;-92
2021/01/04 18:44:37;;;;;;;10.03;6.50;;;4.80;78.50;;;;;;5017044;28;20182;-93
2021/01/04 18:47:04;;;;;;;11.97;7.47;;;5.10;78.00;;;;;;5016799;28;20816;-92
2021/01/04 18:49:29;;;;;;;9.23;5.88;;;5.00;77.20;;;;;;5030358;28;20438;-92
2021/01/04 18:51:59;;;;;;;11.07;7.10;;;4.70;77.90;;;;;;5016494;28;20189;-93
2021/01/04 18:54:25;;;;;;;12.70;7.18;;;4.70;78.10;;;;;;5015322;28;20429;-92
2021/01/04 18:56:51;;;;;;;11.65;6.88;;;4.60;78.60;;;;;;5014865;28;20627;-92
2021/01/04 18:59:23;;;;;;;11.40;6.30;;;4.70;78.50;;;;;;5014080;28;20202;-92
2021/01/04 19:02:04;;;;;;;15.23;6.60;;;4.70;78.40;;;;;;5014461;28;20486;-92
2021/01/04 19:04:31;;;;;;;11.00;6.72;;;4.60;78.10;;;;;;5014974;28;20170;-93
2021/01/04 19:06:59;;;;;;;10.27;7.18;;;4.80;78.00;;;;;;5027696;28;20179;-93
2021/01/04 19:09:25;;;;;;;12.55;7.05;;;4.90;77.70;;;;;;5016777;28;20206;-92
2021/01/04 19:11:55;;;;;;;12.23;7.95;;;4.80;77.70;;;;;;5014905;28;20191;-92
2021/01/04 19:14:22;;;;;;;12.77;7.10;;;4.60;77.90;;;;;;5016146;28;20209;-92
2021/01/04 19:16:56;;;;;;;11.40;7.15;;;4.60;78.10;;;;;;5022389;28;20270;-91
2021/01/04 19:19:22;;;;;;;10.52;6.40;;;4.90;77.90;;;;;;5030710;28;20202;-91
2021/01/04 19:21:48;;;;;;;14.97;7.40;;;4.70;77.60;;;;;;5015675;28;20568;-91
2021/01/04 19:24:16;;;;;;;12.13;7.30;;;4.70;77.90;;;;;;5030801;28;20511;-92
2021/01/04 19:26:42;;;;;;;11.10;6.45;;;4.60;77.80;;;;;;5031332;28;20527;-91
2021/01/04 19:29:11;;;;;;;9.02;5.90;;;4.70;78.00;;;;;;5026941;28;20202;-92
2021/01/04 19:31:40;;;;;;;8.52;5.80;;;4.60;77.70;;;;;;4997362;28;20191;-91
2021/01/04 19:34:07;;;;;;;12.68;7.00;;;4.70;77.70;;;;;;4998115;28;20186;-91
2021/01/04 19:36:33;;;;;;;12.20;7.43;;;4.90;77.70;;;;;;5000902;28;20193;-91
2021/01/04 19:38:59;;;;;;;11.52;8.13;;;4.90;77.10;;;;;;4998189;28;20199;-91
2021/01/04 19:41:29;;;;;;;17.25;6.90;;;4.80;77.00;;;;;;4994731;28;20210;-91
2021/01/04 19:43:58;;;;;;;12.18;7.13;;;4.70;77.40;;;;;;4994093;28;20183;-91
2021/01/04 19:46:24;;;;;;;13.20;7.43;;;4.50;77.80;;;;;;5007998;28;20240;-91
2021/01/04 19:48:57;;;;;;;13.00;8.35;;;4.70;78.00;;;;;;5029622;28;20210;-92
2021/01/04 19:51:23;;;;;;;12.77;7.95;;;4.60;77.60;;;;;;5014033;28;20175;-91
2021/01/04 19:53:50;;;;;;;10.40;7.15;;;4.50;78.20;;;;;;5013766;28;20198;-91
2021/01/04 19:56:17;;;;;;;11.13;7.53;;;4.50;78.50;;;;;;5013270;28;20186;-91
2021/01/04 19:58:43;;;;;;;9.90;6.93;;;4.60;78.20;;;;;;5016836;28;20179;-92
2021/01/04 20:01:09;;;;;;;9.70;7.17;;;4.40;78.80;;;;;;5032572;28;20187;-91
2021/01/04 20:03:34;;;;;;;15.17;8.60;;;4.60;78.60;;;;;;5015158;28;20273;-91
2021/01/04 20:06:00;;;;;;;19.53;8.30;;;4.70;78.10;;;;;;5013121;28;20475;-92
2021/01/04 20:08:26;;;;;;;15.50;8.17;;;4.70;77.70;;;;;;5012850;28;20638;-92
2021/01/04 20:10:53;;;;;;;11.83;7.30;;;4.80;77.40;;;;;;5013576;28;20203;-92
2021/01/04 20:13:19;;;;;;;13.38;6.72;;;4.70;77.80;;;;;;5013474;28;20206;-93
2021/01/04 20:15:50;;;;;;;12.70;7.20;;;4.80;77.80;;;;;;5013145;28;20209;-92
2021/01/04 20:18:20;;;;;;;13.30;9.05;;;4.60;77.80;;;;;;5013342;28;20414;-93
2021/01/04 20:20:47;;;;;;;9.68;6.95;;;4.80;77.60;;;;;;5014025;28;20618;-91
2021/01/04 20:23:13;;;;;;;12.35;8.05;;;4.70;77.90;;;;;;5013319;28;20175;-92
2021/01/04 20:25:39;;;;;;;11.23;6.90;;;4.70;78.10;;;;;;5013847;28;20183;-91
2021/01/04 20:28:06;;;;;;;11.27;7.60;;;4.50;78.50;;;;;;5013742;28;20179;-91
2021/01/04 20:30:32;;;;;;;13.80;8.05;;;4.70;78.30;;;;;;5012240;28;20209;-91
2021/01/04 20:32:58;;;;;;;11.20;7.35;;;4.60;78.10;;;;;;5029580;28;20179;-91
2021/01/04 20:35:24;;;;;;;11.17;7.20;;;4.70;78.00;;;;;;5031333;28;20205;-91
2021/01/04 20:37:50;;;;;;;11.68;8.45;;;4.70;78.40;;;;;;5014184;28;20213;-91
2021/01/04 20:40:15;;;;;;;11.23;8.47;;;4.70;78.30;;;;;;5012838;28;20250;-91
2021/01/04 20:42:41;;;;;;;10.60;8.27;;;4.60;78.40;;;;;;5018140;28;20273;-92
2021/01/04 20:45:08;;;;;;;11.80;7.80;;;4.60;78.60;;;;;;5018680;28;20261;-92
2021/01/04 20:47:38;;;;;;;13.30;7.97;;;4.70;78.40;;;;;;5034977;28;20181;-93
2021/01/04 20:50:04;;;;;;;13.95;8.52;;;4.40;79.20;;;;;;5036323;28;20210;-93
2021/01/04 20:52:30;;;;;;;15.60;8.07;;;4.50;78.80;;;;;;5041495;28;20167;-93
2021/01/04 20:54:58;;;;;;;12.80;8.23;;;4.50;79.10;;;;;;5043900;28;20198;-93
2021/01/04 20:57:24;;;;;;;19.05;8.57;;;4.50;78.80;;;;;;5036523;28;20413;-93
2021/01/04 20:59:50;;;;;;;11.90;7.90;;;4.50;79.10;;;;;;5035604;28;20199;-92
2021/01/04 21:02:16;;;;;;;11.90;8.10;;;4.40;79.10;;;;;;5034907;28;20422;-93
2021/01/04 21:04:42;;;;;;;11.80;6.83;;;4.60;79.00;;;;;;5020623;28;20193;-93
2021/01/04 21:07:08;;;;;;;11.68;7.40;;;4.60;79.00;;;;;;5019353;28;20179;-93
2021/01/04 21:09:34;;;;;;;11.85;7.70;;;4.60;78.70;;;;;;5020161;28;20226;-93
2021/01/04 21:12:01;;;;;;;15.20;9.60;;;4.60;78.80;;;;;;5018896;28;20665;-93
2021/01/04 21:14:27;;;;;;;14.27;8.70;;;4.60;78.80;;;;;;5019905;28;20182;-92
2021/01/04 21:16:54;;;;;;;14.68;7.05;;;4.50;79.20;;;;;;5025710;28;20275;-93
2021/01/04 21:19:20;;;;;;;11.68;8.18;;;4.50;79.10;;;;;;5026001;28;20205;-93
2021/01/04 21:21:46;;;;;;;13.02;7.63;;;4.70;79.20;;;;;;5045732;28;20222;-93
2021/01/04 21:24:13;;;;;;;15.98;8.48;;;4.60;79.00;;;;;;5044075;28;20227;-92
2021/01/04 21:26:39;;;;;;;13.95;9.10;;;4.50;79.30;;;;;;5046683;28;20274;-93
2021/01/04 21:29:08;;;;;;;13.65;7.90;;;4.30;79.80;;;;;;5047158;28;20205;-93
2021/01/04 21:31:37;;;;;;;10.00;7.30;;;4.20;80.20;;;;;;5051819;28;20206;-92
2021/01/04 21:34:04;;;;;;;12.25;7.07;;;4.00;80.60;;;;;;5051299;28;20246;-91
2021/01/04 21:36:32;;;;;;;13.82;8.55;;;4.10;81.20;;;;;;5034368;28;20202;-91
2021/01/04 21:38:59;;;;;;;10.70;7.25;;;4.30;81.00;;;;;;5035265;28;20214;-92
2021/01/04 21:41:27;;;;;;;12.07;7.50;;;4.20;80.90;;;;;;5035719;28;20222;-92
2021/01/04 21:43:53;;;;;;;11.93;7.70;;;4.50;80.50;;;;;;5023106;28;20179;-92
2021/01/04 21:46:20;;;;;;;15.90;8.40;;;4.30;80.20;;;;;;5034054;28;20206;-92
2021/01/04 21:48:46;;;;;;;11.60;8.32;;;4.20;80.80;;;;;;5054854;28;20191;-92
2021/01/04 21:51:11;;;;;;;10.47;7.07;;;4.50;80.30;;;;;;5038016;28;20198;-92
2021/01/04 21:53:37;;;;;;;17.10;8.70;;;4.40;80.30;;;;;;5024967;28;20226;-92
2021/01/04 21:56:03;;;;;;;19.03;9.83;;;4.30;81.10;;;;;;5016894;28;20213;-92
2021/01/04 21:58:29;;;;;;;13.83;8.50;;;4.10;81.00;;;;;;5015511;28;20182;-93
2021/01/04 22:00:54;;;;;;;14.57;9.33;;;4.30;80.90;;;;;;5016011;28;20477;-92
2021/01/04 22:03:20;;;;;;;13.17;7.73;;;4.30;81.00;;;;;;4996412;28;20185;-93
2021/01/04 22:05:45;;;;;;;12.87;8.33;;;4.50;80.30;;;;;;4995089;28;20225;-92
2021/01/04 22:08:11;;;;;;;12.73;8.20;;;4.50;80.20;;;;;;4996151;28;20176;-92
2021/01/04 22:10:37;;;;;;;12.97;8.23;;;4.30;80.50;;;;;;4996928;28;20258;-92
2021/01/04 22:13:02;;;;;;;12.70;8.17;;;4.40;80.50;;;;;;4996872;28;20532;-93
2021/01/04 22:15:28;;;;;;;16.60;7.50;;;4.50;79.90;;;;;;4996622;28;20627;-92
2021/01/04 22:17:54;;;;;;;14.37;7.53;;;4.50;79.80;;;;;;5014956;28;20202;-93
2021/01/04 22:20:19;;;;;;;12.83;7.80;;;4.40;79.90;;;;;;5024036;28;20242;-92
2021/01/04 22:22:45;;;;;;;15.33;8.10;;;4.30;80.40;;;;;;5038833;28;20242;-93
2021/01/04 22:25:11;;;;;;;16.00;8.23;;;4.40;80.30;;;;;;5038718;28;20191;-93
2021/01/04 22:27:37;;;;;;;14.10;8.70;;;4.50;79.80;;;;;;5028246;28;20656;-93
2021/01/04 22:30:05;;;;;;;12.13;8.47;;;4.50;79.50;;;;;;5016199;28;20206;-93
2021/01/04 22:32:31;;;;;;;11.85;8.52;;;4.30;80.00;;;;;;5017317;28;20182;-93
2021/01/04 22:34:56;;;;;;;11.80;6.70;;;4.40;81.00;;;;;;5016805;28;20179;-94
2021/01/04 22:37:22;;;;;;;16.00;8.47;;;4.70;80.00;;;;;;5019427;28;20179;-94
2021/01/04 22:39:48;;;;;;;13.77;8.97;;;4.70;79.00;;;;;;5029670;28;20206;-92
2021/01/04 22:42:13;;;;;;;12.97;7.80;;;4.50;79.20;;;;;;5015367;28;20193;-91
2021/01/04 22:44:39;;;;;;;12.10;8.30;;;4.40;79.70;;;;;;5014642;28;20174;-92
2021/01/04 22:47:05;;;;;;;12.23;7.50;;;4.40;79.60;;;;;;5015079;28;20281;-91
2021/01/04 22:49:30;;;;;;;12.80;8.60;;;4.40;79.70;;;;;;5015607;28;20195;-91
2021/01/04 22:51:56;;;;;;;17.83;9.63;;;4.40;79.40;;;;;;5014766;28;20183;-90
2021/01/04 22:54:23;;;;;;;13.30;8.43;;;4.50;79.70;;;;;;5015675;28;20183;-91
2021/01/04 22:56:53;;;;;;;13.63;7.80;;;4.40;79.50;;;;;;5031213;28;20429;-91
2021/01/04 22:59:20;;;;;;;11.13;7.00;;;4.60;79.30;;;;;;5030187;28;20202;-91
2021/01/04 23:01:47;;;;;;;13.88;6.85;;;4.50;79.10;;;;;;5030998;28;20310;-90
2021/01/04 23:04:15;;;;;;;12.98;8.25;;;4.50;79.80;;;;;;5014205;28;20187;-90
2021/01/04 23:06:41;;;;;;;14.30;7.47;;;4.60;79.30;;;;;;5018361;28;20178;-90
2021/01/04 23:09:17;;;;;;;13.27;7.47;;;4.30;79.60;;;;;;5015210;28;20297;-90
2021/01/04 23:11:43;;;;;;;12.43;8.32;;;4.10;80.20;;;;;;5015172;28;20601;-91
2021/01/04 23:14:12;;;;;;;12.05;6.75;;;4.10;80.10;;;;;;5015447;28;20590;-91
2021/01/04 23:16:37;;;;;;;11.88;7.60;;;4.40;79.90;;;;;;5015434;28;20178;-91
2021/01/04 23:19:07;;;;;;;12.73;6.90;;;4.60;79.50;;;;;;5013689;28;20225;-91
2021/01/04 23:21:33;;;;;;;13.13;7.55;;;4.80;78.80;;;;;;5013896;28;20233;-91
2021/01/04 23:23:58;;;;;;;13.15;7.30;;;4.60;78.20;;;;;;5014204;28;20183;-90
2021/01/04 23:26:25;;;;;;;13.13;7.87;;;4.10;79.40;;;;;;5014049;28;20256;-91
2021/01/04 23:28:51;;;;;;;12.93;7.38;;;4.30;79.50;;;;;;5014541;28;20413;-90
2021/01/04 23:31:19;;;;;;;10.07;6.90;;;4.20;79.60;;;;;;5020912;28;20606;-90
2021/01/04 23:33:45;;;;;;;11.23;7.32;;;4.40;79.30;;;;;;5014027;28;20182;-91
2021/01/04 23:36:11;;;;;;;12.90;8.82;;;4.40;78.90;;;;;;5013793;28;20183;-91
2021/01/04 23:38:37;;;;;;;10.65;7.32;;;4.20;79.10;;;;;;5015235;28;20186;-90
2021/01/04 23:41:04;;;;;;;11.37;7.37;;;4.20;79.50;;;;;;5014181;28;20210;-91
2021/01/04 23:43:31;;;;;;;9.77;6.47;;;4.30;79.30;;;;;;5013982;28;20178;-91
2021/01/04 23:45:58;;;;;;;15.02;8.13;;;4.50;78.70;;;;;;5013757;28;20178;-91
2021/01/04 23:48:24;;;;;;;14.68;8.02;;;4.30;78.50;;;;;;5030182;28;20193;-91
2021/01/04 23:50:50;;;;;;;14.27;7.87;;;4.50;78.60;;;;;;5030017;28;20203;-91
2021/01/04 23:53:15;;;;;;;12.20;7.70;;;4.60;78.00;;;;;;5030003;28;20417;-91
2021/01/04 23:55:41;;;;;;;15.13;7.20;;;4.50;78.20;;;;;;5013934;28;20501;-91
2021/01/04 23:58:07;;;;;;;10.50;7.03;;;4.60;77.60;;;;;;5013440;28;20175;-91
